sensor_id;sensor_type;location;lat;lon;timestamp;P1;durP1;ratioP1;P2;durP2;ratioP2
15234;SDS011;7720;51.926;4.488;2022-09-03T00:03:28;5.47;;;2.47;;
15234;SDS011;7720;51.926;4.488;2022-09-03T00:08:41;4.40;;;2.28;;
15234;SDS011;7720;51.926;4.488;2022-09-03T00:13:49;5.82;;;2.40;;
15234;SDS011;7720;51.926;4.488;2022-09-03T00:18:57;4.60;;;2.00;;
15234;SDS011;7720;51.926;4.488;2022-09-03T00:24:06;5.32;;;1.90;;
15234;SDS011;7720;51.926;4.488;2022-09-03T00:29:15;7.30;;;2.30;;
15234;SDS011;7720;51.926;4.488;2022-09-03T00:34:22;4.95;;;2.30;;
15234;SDS011;7720;51.926;4.488;2022-09-03T00:39:32;4.63;;;2.00;;
15234;SDS011;7720;51.926;4.488;2022-09-03T00:44:43;5.75;;;1.90;;
15234;SDS011;7720;51.926;4.488;2022-09-03T00:49:58;6.45;;;1.92;;
15234;SDS011;7720;51.926;4.488;2022-09-03T00:55:12;4.07;;;1.60;;
15234;SDS011;7720;51.926;4.488;2022-09-03T01:00:27;3.80;;;2.00;;
15234;SDS011;7720;51.926;4.488;2022-09-03T01:05:40;3.80;;;1.80;;
15234;SDS011;7720;51.926;4.488;2022-09-03T01:10:56;5.88;;;1.75;;
15234;SDS011;7720;51.926;4.488;2022-09-03T01:16:08;5.05;;;1.77;;
15234;SDS011;7720;51.926;4.488;2022-09-03T01:21:28;3.95;;;1.98;;
15234;SDS011;7720;51.926;4.488;2022-09-03T01:27:04;5.43;;;2.22;;
15234;SDS011;7720;51.926;4.488;2022-09-03T01:32:21;5.50;;;2.15;;
15234;SDS011;7720;51.926;4.488;2022-09-03T01:37:32;4.65;;;1.77;;
15234;SDS011;7720;51.926;4.488;2022-09-03T01:42:47;4.72;;;1.80;;
15234;SDS011;7720;51.926;4.488;2022-09-03T01:48:12;2.13;;;1.88;;
15234;SDS011;7720;51.926;4.488;2022-09-03T01:53:26;3.35;;;1.85;;
15234;SDS011;7720;51.926;4.488;2022-09-03T01:58:36;4.40;;;1.80;;
15234;SDS011;7720;51.926;4.488;2022-09-03T02:03:45;4.93;;;1.90;;
15234;SDS011;7720;51.926;4.488;2022-09-03T02:08:50;3.53;;;1.90;;
15234;SDS011;7720;51.926;4.488;2022-09-03T02:13:53;5.57;;;2.28;;
15234;SDS011;7720;51.926;4.488;2022-09-03T02:19:02;4.43;;;2.28;;
15234;SDS011;7720;51.926;4.488;2022-09-03T02:24:12;4.28;;;2.00;;
15234;SDS011;7720;51.926;4.488;2022-09-03T02:29:15;3.08;;;2.20;;
15234;SDS011;7720;51.926;4.488;2022-09-03T02:34:30;5.05;;;2.05;;
15234;SDS011;7720;51.926;4.488;2022-09-03T02:39:39;4.22;;;2.35;;
15234;SDS011;7720;51.926;4.488;2022-09-03T02:44:43;10.57;;;2.35;;
15234;SDS011;7720;51.926;4.488;2022-09-03T02:49:51;2.90;;;2.30;;
15234;SDS011;7720;51.926;4.488;2022-09-03T02:54:54;10.00;;;2.65;;
15234;SDS011;7720;51.926;4.488;2022-09-03T02:59:57;7.97;;;2.13;;
15234;SDS011;7720;51.926;4.488;2022-09-03T03:05:02;6.10;;;2.53;;
15234;SDS011;7720;51.926;4.488;2022-09-03T03:10:06;4.93;;;2.28;;
15234;SDS011;7720;51.926;4.488;2022-09-03T03:15:10;4.28;;;2.10;;
15234;SDS011;7720;51.926;4.488;2022-09-03T03:20:15;3.05;;;2.10;;
15234;SDS011;7720;51.926;4.488;2022-09-03T03:25:18;5.55;;;2.20;;
15234;SDS011;7720;51.926;4.488;2022-09-03T03:30:21;3.25;;;2.40;;
15234;SDS011;7720;51.926;4.488;2022-09-03T03:35:26;2.83;;;2.10;;
15234;SDS011;7720;51.926;4.488;2022-09-03T03:40:29;4.40;;;2.25;;
15234;SDS011;7720;51.926;4.488;2022-09-03T03:45:33;3.47;;;2.33;;
15234;SDS011;7720;51.926;4.488;2022-09-03T03:50:37;4.10;;;2.10;;
15234;SDS011;7720;51.926;4.488;2022-09-03T03:55:40;9.60;;;2.40;;
15234;SDS011;7720;51.926;4.488;2022-09-03T04:00:44;5.45;;;2.30;;
15234;SDS011;7720;51.926;4.488;2022-09-03T04:05:56;10.02;;;2.78;;
15234;SDS011;7720;51.926;4.488;2022-09-03T04:11:01;4.90;;;2.45;;
15234;SDS011;7720;51.926;4.488;2022-09-03T04:16:05;6.95;;;2.65;;
15234;SDS011;7720;51.926;4.488;2022-09-03T04:21:12;3.90;;;2.45;;
15234;SDS011;7720;51.926;4.488;2022-09-03T04:26:18;5.35;;;2.20;;
15234;SDS011;7720;51.926;4.488;2022-09-03T04:31:22;4.05;;;2.33;;
15234;SDS011;7720;51.926;4.488;2022-09-03T04:36:27;5.40;;;2.38;;
15234;SDS011;7720;51.926;4.488;2022-09-03T04:41:32;3.97;;;2.38;;
15234;SDS011;7720;51.926;4.488;2022-09-03T04:46:35;4.35;;;2.15;;
15234;SDS011;7720;51.926;4.488;2022-09-03T04:51:41;4.20;;;2.42;;
15234;SDS011;7720;51.926;4.488;2022-09-03T04:56:44;4.72;;;2.33;;
15234;SDS011;7720;51.926;4.488;2022-09-03T05:01:49;4.45;;;2.08;;
15234;SDS011;7720;51.926;4.488;2022-09-03T05:06:54;6.15;;;2.38;;
15234;SDS011;7720;51.926;4.488;2022-09-03T05:11:57;5.05;;;2.65;;
15234;SDS011;7720;51.926;4.488;2022-09-03T05:17:01;6.05;;;2.47;;
15234;SDS011;7720;51.926;4.488;2022-09-03T05:22:05;4.80;;;2.47;;
15234;SDS011;7720;51.926;4.488;2022-09-03T05:27:09;5.28;;;2.30;;
15234;SDS011;7720;51.926;4.488;2022-09-03T05:32:12;4.60;;;2.50;;
15234;SDS011;7720;51.926;4.488;2022-09-03T05:37:18;4.65;;;2.35;;
15234;SDS011;7720;51.926;4.488;2022-09-03T05:42:22;7.53;;;2.50;;
